Time;durP1;ratioP1;P1;durP2;ratioP2;P2;SDS_P1;SDS_P2;PMS_P1;PMS_P2;Temp;Humidity;BMP_temperature;BMP_pressure;BME280_temperature;BME280_humidity;BME280_pressure;Samples;Min_cycle;Max_cycle;Signal;HPM_P1;HPM_P2
2021/05/02 00:01:09;;;;;;;10.68;8.50;;;6.70;99.90;;;;;;5068338;28;20028;-83
2021/05/02 00:03:35;;;;;;;10.80;9.20;;;6.80;99.90;;;;;;5089056;28;20031;-83
2021/05/02 00:06:03;;;;;;;11.85;8.38;;;6.70;99.90;;;;;;5080343;28;20043;-83
2021/05/02 00:08:29;;;;;;;9.30;7.35;;;6.70;99.90;;;;;;5079396;28;20032;-84
2021/05/02 00:10:57;;;;;;;9.52;7.43;;;6.80;99.90;;;;;;5087598;28;20031;-84
2021/05/02 00:13:23;;;;;;;9.43;7.65;;;6.70;99.90;;;;;;5085419;28;20219;-84
2021/05/02 00:15:50;;;;;;;10.93;7.88;;;6.60;99.90;;;;;;5067703;28;20025;-82
2021/05/02 00:18:17;;;;;;;10.48;8.05;;;6.60;99.90;;;;;;5057382;28;20072;-82
2021/05/02 00:20:44;;;;;;;10.40;8.13;;;6.60;99.90;;;;;;5078958;28;20401;-84
2021/05/02 00:23:12;;;;;;;10.38;7.88;;;6.60;99.90;;;;;;5067488;28;20075;-82
2021/05/02 00:25:38;;;;;;;11.32;8.75;;;6.60;99.90;;;;;;5082606;28;20052;-82
2021/05/02 00:28:06;;;;;;;10.95;8.10;;;6.50;99.90;;;;;;5074707;28;20086;-82
2021/05/02 00:30:33;;;;;;;9.70;7.30;;;6.50;99.90;;;;;;5067663;28;20025;-85
2021/05/02 00:33:01;;;;;;;9.95;7.75;;;6.40;99.90;;;;;;5067552;28;20407;-83
2021/05/02 00:35:27;;;;;;;10.85;7.93;;;6.30;99.90;;;;;;5070723;28;20028;-83
2021/05/02 00:37:54;;;;;;;9.90;8.18;;;6.30;99.90;;;;;;5081274;28;20012;-82
2021/05/02 00:40:40;;;;;;;10.07;7.68;;;6.30;99.90;;;;;;5078902;28;20028;-82
2021/05/02 00:43:13;;;;;;;10.75;8.07;;;6.20;99.90;;;;;;5075205;28;20028;-82
2021/05/02 00:45:57;;;;;;;10.85;7.68;;;6.10;99.90;;;;;;5087261;28;20700;-81
2021/05/02 00:48:49;;;;;;;9.98;7.00;;;6.10;99.90;;;;;;5071400;28;20024;-80
2021/05/02 00:51:18;;;;;;;9.95;7.68;;;6.20;99.90;;;;;;5071632;28;20105;-83
2021/05/02 00:54:15;;;;;;;10.77;7.75;;;6.20;99.90;;;;;;5071483;28;20686;-83
2021/05/02 00:56:58;;;;;;;10.90;7.65;;;6.30;99.90;;;;;;5072643;28;20031;-83
2021/05/02 00:59:49;;;;;;;11.27;8.00;;;6.30;99.90;;;;;;5072950;28;20495;-83
2021/05/02 01:02:17;;;;;;;9.38;8.00;;;6.40;99.90;;;;;;5081879;28;20032;-82
2021/05/02 01:04:46;;;;;;;10.63;7.75;;;6.50;99.90;;;;;;5077965;28;20115;-83
2021/05/02 01:07:18;;;;;;;9.88;7.82;;;6.50;99.90;;;;;;5072182;28;20128;-84
2021/05/02 01:09:44;;;;;;;9.18;7.28;;;6.60;99.90;;;;;;5076122;28;20016;-83
2021/05/02 01:12:13;;;;;;;9.05;6.88;;;6.60;99.90;;;;;;5090842;28;20507;-81
2021/05/02 01:14:46;;;;;;;9.02;6.47;;;6.60;99.90;;;;;;5077760;28;20024;-83
2021/05/02 01:17:14;;;;;;;10.97;6.77;;;6.70;99.90;;;;;;5087965;28;20687;-83
2021/05/02 01:19:41;;;;;;;9.30;7.10;;;6.70;99.90;;;;;;5080100;28;20024;-83
2021/05/02 01:22:16;;;;;;;9.10;6.75;;;6.70;99.90;;;;;;5095547;28;20031;-83
2021/05/02 01:24:53;;;;;;;8.32;6.30;;;6.80;99.90;;;;;;5094585;28;21088;-84
2021/05/02 01:27:29;;;;;;;7.35;5.90;;;6.80;99.90;;;;;;5082478;28;20490;-83
2021/05/02 01:29:57;;;;;;;9.27;6.15;;;6.80;99.90;;;;;;5082383;28;20028;-84
2021/05/02 01:32:25;;;;;;;9.52;6.43;;;6.80;99.90;;;;;;5085221;28;20414;-83
2021/05/02 01:34:52;;;;;;;9.07;5.63;;;6.90;99.90;;;;;;5087417;28;20452;-84
2021/05/02 01:37:18;;;;;;;8.82;5.72;;;6.90;99.90;;;;;;5083441;28;20486;-83
2021/05/02 01:39:45;;;;;;;8.82;6.25;;;6.90;99.90;;;;;;5084946;28;20039;-83
2021/05/02 01:42:11;;;;;;;6.50;5.18;;;6.90;99.90;;;;;;5082730;28;20109;-83
2021/05/02 01:44:38;;;;;;;6.70;5.35;;;6.90;99.90;;;;;;5086729;28;20097;-83
2021/05/02 01:47:19;;;;;;;7.65;5.25;;;6.90;99.90;;;;;;5085791;28;20376;-83
2021/05/02 01:49:55;;;;;;;8.63;5.72;;;6.90;99.90;;;;;;5082042;28;20039;-83
2021/05/02 01:52:22;;;;;;;8.82;5.45;;;6.80;99.90;;;;;;5083640;28;20021;-82
2021/05/02 01:54:49;;;;;;;7.60;5.25;;;6.80;99.90;;;;;;5082136;28;20031;-83
2021/05/02 01:57:29;;;;;;;11.38;5.47;;;6.70;99.90;;;;;;5084263;28;20553;-83
2021/05/02 01:59:59;;;;;;;6.75;4.80;;;6.70;99.90;;;;;;5085545;28;20799;-82
2021/05/02 02:02:27;;;;;;;7.38;4.57;;;6.60;99.90;;;;;;5079631;28;20024;-82
2021/05/02 02:04:56;;;;;;;6.95;4.53;;;6.50;99.90;;;;;;5081817;28;20070;-82
2021/05/02 02:07:22;;;;;;;6.65;4.80;;;6.40;99.90;;;;;;5074134;28;20376;-82
2021/05/02 02:09:50;;;;;;;8.52;4.63;;;6.30;99.90;;;;;;5075540;28;20059;-82
2021/05/02 02:12:16;;;;;;;6.82;4.53;;;6.20;99.90;;;;;;5074273;28;20032;-83
2021/05/02 02:14:43;;;;;;;7.18;4.80;;;6.00;99.90;;;;;;5072897;28;20832;-82
2021/05/02 02:17:10;;;;;;;5.03;3.80;;;5.90;99.90;;;;;;5073044;28;20162;-82
2021/05/02 02:19:39;;;;;;;6.63;3.90;;;5.90;99.90;;;;;;5073702;28;20025;-82
2021/05/02 02:22:07;;;;;;;5.68;4.03;;;5.80;99.90;;;;;;5073749;28;20025;-82
2021/05/02 02:24:57;;;;;;;7.18;4.50;;;5.70;99.90;;;;;;5073291;28;20033;-82
2021/05/02 02:27:27;;;;;;;6.90;3.97;;;5.70;99.90;;;;;;5073932;28;20031;-83
2021/05/02 02:30:00;;;;;;;7.22;4.07;;;5.60;99.90;;;;;;5073971;28;20415;-84
2021/05/02 02:32:28;;;;;;;6.80;4.88;;;5.60;99.90;;;;;;5074227;28;20090;-83
2021/05/02 02:34:58;;;;;;;7.85;4.55;;;5.50;99.90;;;;;;5073908;28;20012;-82
2021/05/02 02:37:26;;;;;;;6.82;4.90;;;5.50;99.90;;;;;;5073985;28;20025;-82
2021/05/02 02:40:05;;;;;;;7.88;4.93;;;5.50;99.90;;;;;;5075171;28;20020;-82
2021/05/02 02:42:34;;;;;;;7.00;4.40;;;5.60;99.90;;;;;;5071617;28;20035;-83
2021/05/02 02:45:05;;;;;;;6.57;4.38;;;5.60;99.90;;;;;;5071271;28;20021;-83
2021/05/02 02:47:37;;;;;;;6.88;4.60;;;5.70;99.90;;;;;;5068979;28;20024;-81
2021/05/02 02:50:07;;;;;;;8.38;4.60;;;5.80;99.90;;;;;;5069514;28;20040;-83
2021/05/02 02:52:50;;;;;;;6.22;4.35;;;5.90;99.90;;;;;;5077989;28;20051;-81
2021/05/02 02:55:18;;;;;;;6.13;4.30;;;6.00;99.90;;;;;;5070564;28;20384;-84
2021/05/02 02:57:59;;;;;;;7.68;4.60;;;6.00;99.90;;;;;;5083933;28;20016;-83
2021/05/02 03:00:31;;;;;;;5.93;4.10;;;6.00;99.90;;;;;;5074675;28;20027;-83
2021/05/02 03:03:07;;;;;;;7.18;4.15;;;6.10;99.90;;;;;;5081278;28;20028;-83
2021/05/02 03:05:34;;;;;;;7.60;4.07;;;6.00;99.90;;;;;;5088856;28;20039;-83
2021/05/02 03:08:03;;;;;;;7.03;4.15;;;6.00;99.90;;;;;;5072197;28;20036;-83
2021/05/02 03:10:30;;;;;;;6.88;4.22;;;6.00;99.90;;;;;;5084439;28;20482;-84
2021/05/02 03:12:57;;;;;;;6.22;3.67;;;6.10;99.90;;;;;;5077156;28;20035;-83
2021/05/02 03:15:24;;;;;;;6.75;4.38;;;6.10;99.90;;;;;;5076968;28;20448;-83
2021/05/02 03:18:30;;;;;;;7.70;4.45;;;6.10;99.90;;;;;;5084163;28;20032;-83
2021/05/02 03:21:03;;;;;;;7.15;4.13;;;6.10;99.90;;;;;;5076527;28;20044;-83
2021/05/02 03:23:42;;;;;;;11.82;5.07;;;6.00;99.90;;;;;;5077075;28;20028;-82
2021/05/02 03:26:11;;;;;;;6.65;3.22;;;6.00;99.90;;;;;;5084448;28;20052;-84
2021/05/02 03:28:45;;;;;;;10.65;4.13;;;6.00;99.90;;;;;;5075314;28;20495;-83
2021/05/02 03:31:14;;;;;;;10.70;5.05;;;6.00;99.90;;;;;;5078292;28;20192;-82
2021/05/02 03:33:46;;;;;;;9.18;4.50;;;6.00;99.90;;;;;;5082811;28;20034;-82
2021/05/02 03:36:16;;;;;;;8.40;3.83;;;5.90;99.90;;;;;;5072548;28;20074;-82
2021/05/02 03:38:45;;;;;;;6.80;3.33;;;5.90;99.90;;;;;;5081929;28;20495;-82
2021/05/02 03:41:12;;;;;;;6.38;3.13;;;5.80;99.90;;;;;;5077970;28;20111;-83
2021/05/02 03:43:38;;;;;;;4.47;3.20;;;5.80;99.90;;;;;;5082799;28;20110;-83
2021/05/02 03:46:04;;;;;;;8.23;3.28;;;5.80;99.90;;;;;;5072723;28;20040;-81
2021/05/02 03:48:31;;;;;;;6.13;3.63;;;5.80;99.90;;;;;;5083443;28;20029;-82
2021/05/02 03:50:59;;;;;;;6.07;3.33;;;5.80;99.90;;;;;;5075920;28;20482;-82
2021/05/02 03:53:25;;;;;;;6.50;3.50;;;5.80;99.90;;;;;;5075827;28;20017;-82
2021/05/02 03:55:51;;;;;;;6.35;3.38;;;5.80;99.90;;;;;;5083779;28;20027;-82
2021/05/02 03:58:18;;;;;;;7.88;3.03;;;5.80;99.90;;;;;;5072486;28;20358;-82
2021/05/02 04:00:44;;;;;;;4.75;2.65;;;5.60;99.90;;;;;;5081158;28;20028;-83
2021/05/02 04:03:14;;;;;;;7.25;3.10;;;5.60;99.90;;;;;;5078777;28;20544;-83
2021/05/02 04:05:41;;;;;;;6.00;3.10;;;5.50;99.90;;;;;;5073518;28;20577;-83
2021/05/02 04:08:08;;;;;;;5.70;2.90;;;5.40;99.90;;;;;;5086917;28;20068;-82
2021/05/02 04:10:34;;;;;;;4.22;2.60;;;5.30;99.90;;;;;;5087659;28;20035;-83
2021/05/02 04:13:00;;;;;;;5.45;3.10;;;5.30;99.90;;;;;;5087407;28;20012;-83
2021/05/02 04:15:28;;;;;;;5.28;2.63;;;5.20;99.90;;;;;;5075116;28;20031;-83
2021/05/02 04:17:54;;;;;;;3.63;2.45;;;5.20;99.90;;;;;;5067801;28;20066;-82
2021/05/02 04:20:20;;;;;;;6.05;3.00;;;5.20;99.90;;;;;;5067697;28;20117;-83
2021/05/02 04:22:47;;;;;;;5.05;2.95;;;5.10;99.90;;;;;;5075607;28;20472;-82
2021/05/02 04:25:13;;;;;;;6.40;3.20;;;5.10;99.90;;;;;;5077319;28;20076;-82
2021/05/02 04:27:40;;;;;;;5.65;3.20;;;5.10;99.90;;;;;;5081966;28;20081;-82
2021/05/02 04:30:07;;;;;;;6.55;3.22;;;5.00;99.90;;;;;;5070757;28;20036;-82
2021/05/02 04:32:33;;;;;;;6.28;2.97;;;5.00;99.90;;;;;;5082158;28;20579;-82
2021/05/02 04:34:59;;;;;;;5.40;3.00;;;5.00;99.90;;;;;;5075711;28;20048;-82
2021/05/02 04:37:25;;;;;;;4.45;3.08;;;5.00;99.90;;;;;;5075869;28;20141;-82
2021/05/02 04:39:51;;;;;;;6.20;3.40;;;4.90;99.90;;;;;;5084762;28;20046;-83
2021/05/02 04:42:18;;;;;;;5.15;2.85;;;4.90;99.90;;;;;;5077870;28;20024;-83
2021/05/02 04:44:44;;;;;;;5.13;2.53;;;4.90;99.90;;;;;;5067538;28;20050;-83
2021/05/02 04:47:18;;;;;;;6.93;2.85;;;4.90;99.90;;;;;;5077635;28;20103;-83
2021/05/02 04:49:44;;;;;;;;;;;4.90;99.90;;;;;;5073069;28;20131;-83
2021/05/02 04:52:10;;;;;;;3.83;1.92;;;4.90;99.90;;;;;;5085465;28;19920;-83
2021/05/02 04:54:36;;;;;;;5.45;3.33;;;4.90;99.90;;;;;;5088496;28;20028;-82
2021/05/02 04:57:02;;;;;;;7.47;3.33;;;4.90;99.90;;;;;;5078129;28;20024;-82
2021/05/02 04:59:28;;;;;;;6.20;3.47;;;4.90;99.90;;;;;;5079616;28;20039;-82
2021/05/02 05:01:54;;;;;;;4.78;2.90;;;4.90;99.90;;;;;;5072208;28;20526;-82
2021/05/02 05:04:21;;;;;;;8.35;3.63;;;5.00;99.90;;;;;;5085203;28;20028;-81
2021/05/02 05:06:48;;;;;;;4.50;2.72;;;5.00;99.90;;;;;;5068420;28;20036;-83
2021/05/02 05:09:15;;;;;;;6.18;2.83;;;5.00;99.90;;;;;;5076368;28;20031;-82
2021/05/02 05:11:44;;;;;;;5.85;2.40;;;5.10;99.90;;;;;;5085935;28;20115;-83
2021/05/02 05:14:10;;;;;;;5.65;3.50;;;5.10;99.90;;;;;;5085894;28;20055;-82
2021/05/02 05:16:37;;;;;;;5.40;2.50;;;5.20;99.90;;;;;;5072014;28;20046;-83
2021/05/02 05:19:03;;;;;;;5.88;3.17;;;5.20;99.90;;;;;;5077811;28;20078;-82
2021/05/02 05:21:29;;;;;;;8.93;3.70;;;5.30;99.90;;;;;;5079118;28;20024;-82
2021/05/02 05:23:55;;;;;;;7.50;4.05;;;5.30;99.90;;;;;;5072455;28;20036;-82
2021/05/02 05:26:22;;;;;;;8.45;3.83;;;5.40;99.90;;;;;;5084395;28;20083;-82
2021/05/02 05:28:51;;;;;;;4.97;3.08;;;5.40;99.90;;;;;;5077510;28;20043;-82
2021/05/02 05:31:20;;;;;;;4.55;2.70;;;5.40;99.90;;;;;;5081079;28;20774;-82
2021/05/02 05:33:46;;;;;;;4.57;3.00;;;5.50;99.90;;;;;;5087438;28;20380;-82
2021/05/02 05:36:13;;;;;;;6.93;2.78;;;5.50;99.90;;;;;;5074707;28;20110;-82
2021/05/02 05:38:40;;;;;;;6.30;3.17;;;5.60;99.90;;;;;;5086126;28;20048;-83
2021/05/02 05:41:07;;;;;;;6.80;3.40;;;5.70;99.90;;;;;;5081821;28;20063;-83
2021/05/02 05:43:33;;;;;;;6.05;3.22;;;5.70;99.90;;;;;;5078850;28;20032;-83
2021/05/02 05:46:02;;;;;;;6.78;3.55;;;5.80;99.90;;;;;;5087985;28;20047;-83
2021/05/02 05:48:28;;;;;;;7.55;3.45;;;5.90;99.90;;;;;;5071370;28;20043;-84
2021/05/02 05:50:54;;;;;;;7.32;3.63;;;5.90;99.90;;;;;;5079356;28;20027;-83
2021/05/02 05:53:20;;;;;;;7.07;3.50;;;6.00;99.90;;;;;;5078431;28;20120;-83
2021/05/02 05:55:46;;;;;;;5.63;3.45;;;6.10;99.90;;;;;;5085200;28;20035;-83
2021/05/02 05:58:12;;;;;;;6.22;3.85;;;6.20;99.90;;;;;;5072987;28;20024;-83
2021/05/02 06:00:38;;;;;;;5.25;3.53;;;6.30;99.90;;;;;;5083578;28;20420;-83
2021/05/02 06:03:05;;;;;;;5.97;3.55;;;6.30;99.90;;;;;;5079209;28;20107;-83
2021/05/02 06:05:32;;;;;;;7.00;3.20;;;6.40;99.90;;;;;;5076911;28;20025;-83
2021/05/02 06:07:58;;;;;;;7.47;3.67;;;6.40;99.90;;;;;;5086188;28;20043;-82
2021/05/02 06:10:25;;;;;;;8.52;4.00;;;6.50;99.90;;;;;;5073045;28;20073;-84
2021/05/02 06:12:54;;;;;;;8.55;3.88;;;6.60;99.90;;;;;;5083550;28;20025;-83
2021/05/02 06:15:21;;;;;;;7.05;3.45;;;6.70;99.90;;;;;;5080789;28;20138;-84
2021/05/02 06:17:47;;;;;;;8.23;3.38;;;6.70;99.90;;;;;;5075482;28;20032;-82
2021/05/02 06:20:13;;;;;;;6.97;3.00;;;6.80;99.90;;;;;;5085943;28;20024;-84
2021/05/02 06:22:39;;;;;;;9.48;3.38;;;6.90;99.90;;;;;;5074746;28;20020;-82
2021/05/02 06:25:07;;;;;;;5.78;3.78;;;7.00;99.90;;;;;;5079682;28;20527;-82
2021/05/02 06:27:33;;;;;;;8.88;3.78;;;7.10;99.90;;;;;;5082383;28;20024;-82
2021/05/02 06:30:00;;;;;;;6.35;3.08;;;7.10;99.90;;;;;;5072249;28;20039;-82
2021/05/02 06:32:26;;;;;;;9.10;3.55;;;7.20;99.90;;;;;;5085091;28;20419;-81
2021/05/02 06:34:52;;;;;;;7.68;2.80;;;7.20;99.90;;;;;;5076457;28;20020;-81
2021/05/02 06:37:19;;;;;;;8.82;2.95;;;7.20;99.90;;;;;;5077200;28;20063;-83
2021/05/02 06:39:45;;;;;;;5.05;2.38;;;7.30;99.90;;;;;;5082926;28;20040;-82
2021/05/02 06:42:14;;;;;;;6.78;2.80;;;7.30;99.90;;;;;;5071418;28;20025;-83
2021/05/02 06:44:40;;;;;;;4.45;2.35;;;7.40;99.90;;;;;;5089187;28;20028;-82
2021/05/02 06:47:07;;;;;;;5.18;2.17;;;7.40;99.90;;;;;;5077820;28;20053;-82
2021/05/02 06:49:33;;;;;;;5.22;2.60;;;7.50;99.90;;;;;;5082242;28;20051;-83
2021/05/02 06:51:59;;;;;;;8.80;2.75;;;7.50;99.90;;;;;;5073110;28;20033;-81
2021/05/02 06:54:26;;;;;;;5.05;2.38;;;7.60;99.90;;;;;;5084916;28;20039;-82
2021/05/02 06:56:52;;;;;;;6.47;2.35;;;7.60;99.90;;;;;;5068293;28;20538;-83
2021/05/02 06:59:22;;;;;;;4.22;2.13;;;7.60;99.90;;;;;;5081305;28;20581;-83
2021/05/02 07:01:48;;;;;;;7.55;2.58;;;7.80;99.90;;;;;;5074964;28;20225;-82
2021/05/02 07:04:15;;;;;;;4.47;2.20;;;7.90;99.90;;;;;;5085141;28;20756;-83
2021/05/02 07:06:43;;;;;;;4.50;1.95;;;7.90;99.90;;;;;;5074466;28;20101;-86
2021/05/02 07:09:13;;;;;;;7.13;3.03;;;7.90;99.90;;;;;;5087514;28;20458;-81
2021/05/02 07:11:40;;;;;;;5.78;2.28;;;8.00;99.90;;;;;;5085026;28;20047;-83
2021/05/02 07:14:08;;;;;;;4.93;2.50;;;8.00;99.90;;;;;;5067119;28;20090;-82
2021/05/02 07:16:39;;;;;;;6.78;2.92;;;8.10;99.90;;;;;;5083211;28;20676;-82
2021/05/02 07:19:05;;;;;;;5.68;2.20;;;8.20;99.90;;;;;;5074320;28;20032;-82
2021/05/02 07:21:31;;;;;;;5.60;1.92;;;8.30;99.90;;;;;;5079699;28;20043;-82
2021/05/02 07:23:57;;;;;;;3.90;1.85;;;8.40;99.90;;;;;;5076264;28;20032;-82
2021/05/02 07:26:24;;;;;;;5.35;2.00;;;8.50;99.90;;;;;;5076161;28;20060;-82
2021/05/02 07:28:51;;;;;;;4.32;1.70;;;8.60;99.90;;;;;;5079029;28;20472;-82
2021/05/02 07:31:19;;;;;;;4.05;1.65;;;8.50;99.90;;;;;;5079099;28;20019;-82
2021/05/02 07:33:45;;;;;;;4.10;1.90;;;8.50;99.90;;;;;;5078515;28;20318;-83
2021/05/02 07:36:14;;;;;;;5.00;1.90;;;8.60;99.90;;;;;;5080367;28;20024;-82
2021/05/02 07:38:42;;;;;;;4.75;1.70;;;8.70;99.90;;;;;;5081638;28;20077;-82
2021/05/02 07:41:09;;;;;;;4.22;1.55;;;8.80;99.90;;;;;;5079135;28;20105;-83
2021/05/02 07:43:36;;;;;;;3.63;1.83;;;9.00;99.90;;;;;;5084658;28;20032;-82
2021/05/02 07:46:03;;;;;;;2.88;1.30;;;9.10;99.90;;;;;;5080673;28;20021;-82
2021/05/02 07:48:29;;;;;;;3.38;1.45;;;9.30;99.80;;;;;;5080543;28;20020;-81
2021/05/02 07:50:56;;;;;;;3.72;1.25;;;9.30;98.80;;;;;;5078084;28;20024;-82
2021/05/02 07:53:23;;;;;;;3.53;1.30;;;9.40;98.80;;;;;;5080897;28;20039;-82
2021/05/02 07:55:49;;;;;;;4.20;1.50;;;9.40;98.60;;;;;;5080634;28;20565;-82
2021/05/02 07:58:16;;;;;;;3.08;1.20;;;9.40;99.10;;;;;;5081329;28;20090;-82
2021/05/02 08:00:42;;;;;;;3.75;1.10;;;9.30;98.90;;;;;;5078751;28;20025;-82
2021/05/02 08:03:08;;;;;;;3.95;1.20;;;9.30;98.60;;;;;;5080996;28;20101;-82
2021/05/02 08:05:35;;;;;;;5.47;1.05;;;9.30;99.00;;;;;;5046327;28;20028;-81
2021/05/02 08:08:02;;;;;;;3.30;1.08;;;9.30;98.80;;;;;;5080159;28;20052;-82
2021/05/02 08:10:28;;;;;;;5.38;1.05;;;9.40;98.70;;;;;;5081791;28;20028;-82
2021/05/02 08:12:55;;;;;;;3.40;1.13;;;9.50;99.00;;;;;;5080780;28;20391;-82
2021/05/02 08:15:27;;;;;;;3.30;1.15;;;9.60;98.60;;;;;;5082022;28;20023;-81
2021/05/02 08:17:57;;;;;;;3.00;1.70;;;9.70;98.10;;;;;;5083853;28;20078;-82
2021/05/02 08:20:24;;;;;;;4.32;1.23;;;9.80;97.50;;;;;;5076192;28;20441;-82
2021/05/02 08:23:02;;;;;;;2.67;1.30;;;9.70;97.10;;;;;;5080324;28;20104;-82
2021/05/02 08:25:31;;;;;;;1.98;0.90;;;9.60;97.20;;;;;;5079106;28;20174;-83
2021/05/02 08:27:59;;;;;;;4.93;1.40;;;9.60;96.70;;;;;;5081124;28;20036;-83
2021/05/02 08:30:28;;;;;;;1.67;0.90;;;9.60;96.50;;;;;;5078706;28;20025;-82
2021/05/02 08:32:55;;;;;;;3.53;0.93;;;9.70;95.80;;;;;;5079562;28;20380;-83
2021/05/02 08:35:22;;;;;;;2.15;1.00;;;9.80;96.30;;;;;;5080702;28;20102;-82
2021/05/02 08:37:57;;;;;;;2.38;0.75;;;10.10;95.80;;;;;;5081542;28;20020;-82
2021/05/02 08:40:23;;;;;;;4.78;1.13;;;10.20;95.20;;;;;;5081966;28;20012;-83
2021/05/02 08:42:51;;;;;;;2.85;1.00;;;10.30;94.90;;;;;;5061340;28;20440;-83
2021/05/02 08:45:17;;;;;;;2.55;0.90;;;10.30;94.50;;;;;;5063184;28;20117;-83
2021/05/02 08:47:43;;;;;;;2.03;1.05;;;10.30;95.10;;;;;;5081810;28;20036;-82
2021/05/02 08:50:11;;;;;;;4.40;1.00;;;10.20;95.10;;;;;;5079340;28;20500;-83
2021/05/02 08:52:38;;;;;;;2.95;1.20;;;10.10;94.70;;;;;;5080289;28;20022;-83
2021/05/02 08:55:07;;;;;;;3.22;0.80;;;10.00;94.80;;;;;;5081093;28;20533;-83
2021/05/02 08:57:38;;;;;;;2.85;0.88;;;10.10;95.20;;;;;;5080969;28;20534;-83
2021/05/02 09:00:09;;;;;;;3.15;0.90;;;10.20;94.80;;;;;;5078041;28;20504;-83
2021/05/02 09:02:35;;;;;;;1.70;0.80;;;10.20;94.60;;;;;;5082394;28;20016;-83
2021/05/02 09:05:05;;;;;;;2.03;0.85;;;10.30;94.60;;;;;;5084226;28;20020;-83
2021/05/02 09:07:48;;;;;;;3.25;0.80;;;10.40;94.30;;;;;;5082763;28;20112;-82
2021/05/02 09:10:16;;;;;;;3.03;0.98;;;10.50;94.40;;;;;;5083235;28;20491;-82
2021/05/02 09:12:58;;;;;;;2.85;0.80;;;10.50;93.50;;;;;;5082294;28;20065;-83
2021/05/02 09:15:24;;;;;;;3.70;1.10;;;10.50;92.90;;;;;;5083963;28;20575;-83
2021/05/02 09:18:18;;;;;;;2.35;0.90;;;10.50;92.60;;;;;;5080806;28;20032;-82
2021/05/02 09:20:49;;;;;;;3.00;0.80;;;10.60;93.00;;;;;;5084235;28;20373;-84
2021/05/02 09:23:18;;;;;;;3.20;0.82;;;10.70;92.70;;;;;;5082504;28;20024;-82
2021/05/02 09:25:49;;;;;;;1.40;0.85;;;10.90;92.90;;;;;;5066696;28;20052;-83
2021/05/02 09:28:51;;;;;;;3.00;0.65;;;11.00;92.50;;;;;;5081852;28;20009;-83
2021/05/02 09:31:40;;;;;;;2.60;0.70;;;11.10;92.30;;;;;;5077988;28;20036;-82
2021/05/02 09:34:28;;;;;;;1.48;0.57;;;11.40;92.80;;;;;;5084447;28;20025;-84
2021/05/02 09:37:06;;;;;;;1.15;0.73;;;12.40;92.40;;;;;;5064083;28;20036;-83
2021/05/02 09:39:56;;;;;;;1.95;0.80;;;12.70;91.60;;;;;;5082006;28;20059;-83
2021/05/02 09:42:32;;;;;;;2.30;0.63;;;13.60;90.70;;;;;;5083865;28;20016;-84
2021/05/02 09:45:00;;;;;;;1.13;0.47;;;14.10;88.80;;;;;;5080982;28;20032;-83
2021/05/02 09:47:34;;;;;;;1.42;0.70;;;13.90;88.60;;;;;;5064377;28;20024;-83
2021/05/02 09:50:22;;;;;;;0.80;0.70;;;13.40;86.90;;;;;;5080018;28;20079;-83
2021/05/02 09:52:49;;;;;;;1.48;0.80;;;12.80;86.20;;;;;;5080118;28;20321;-81
2021/05/02 09:55:23;;;;;;;3.42;1.00;;;12.40;88.70;;;;;;5084527;28;20020;-82
2021/05/02 09:57:55;;;;;;;1.63;0.68;;;12.00;89.10;;;;;;5083415;28;20028;-83
2021/05/02 10:00:37;;;;;;;3.38;0.60;;;11.60;89.60;;;;;;5077825;28;20028;-82
2021/05/02 10:03:11;;;;;;;2.53;0.80;;;11.30;89.50;;;;;;5083034;28;20449;-81
2021/05/02 10:05:57;;;;;;;3.95;0.82;;;11.10;90.20;;;;;;5084095;28;20266;-82
2021/05/02 10:08:33;;;;;;;1.75;0.80;;;10.90;90.40;;;;;;5084270;28;20036;-84
2021/05/02 10:11:06;;;;;;;1.35;0.60;;;10.70;90.20;;;;;;5085322;28;20024;-82
2021/05/02 10:13:33;;;;;;;2.78;0.88;;;10.70;90.50;;;;;;5084823;28;20069;-82
2021/05/02 10:16:01;;;;;;;2.85;0.90;;;10.70;90.70;;;;;;5082539;28;20178;-83
2021/05/02 10:18:27;;;;;;;4.30;0.90;;;10.70;90.50;;;;;;5084887;28;20067;-83
2021/05/02 10:20:54;;;;;;;2.67;1.15;;;10.80;91.00;;;;;;5083538;28;20101;-84
2021/05/02 10:23:22;;;;;;;3.85;0.77;;;10.90;90.70;;;;;;5082941;28;20028;-82
2021/05/02 10:25:55;;;;;;;3.17;1.23;;;11.60;90.80;;;;;;5081994;28;20102;-84
2021/05/02 10:28:26;;;;;;;1.85;0.70;;;12.80;90.40;;;;;;5082421;28;20031;-84
2021/05/02 10:30:53;;;;;;;2.63;0.80;;;14.40;87.70;;;;;;5081298;28;20028;-83
2021/05/02 10:33:45;;;;;;;1.45;0.70;;;15.50;85.20;;;;;;5083496;28;20016;-83
2021/05/02 10:36:23;;;;;;;1.48;0.60;;;15.60;80.60;;;;;;5083396;28;20043;-84
2021/05/02 10:38:58;;;;;;;1.33;0.60;;;16.10;80.90;;;;;;5080352;28;20127;-84
2021/05/02 10:41:38;;;;;;;1.65;0.50;;;17.00;78.90;;;;;;5080843;28;20093;-82
2021/05/02 10:44:13;;;;;;;2.05;0.50;;;17.80;77.70;;;;;;5082534;28;20024;-82
2021/05/02 10:46:52;;;;;;;1.50;0.77;;;17.70;73.20;;;;;;5085120;28;20028;-81
2021/05/02 10:49:44;;;;;;;2.28;0.90;;;16.90;72.10;;;;;;5088862;28;20035;-82
2021/05/02 10:52:34;;;;;;;1.40;0.52;;;16.60;73.60;;;;;;5080887;28;20068;-82
2021/05/02 10:55:12;;;;;;;1.80;0.70;;;16.60;73.60;;;;;;5081835;28;20032;-82
2021/05/02 10:57:39;;;;;;;1.13;0.45;;;16.10;72.10;;;;;;5081252;28;20024;-81
2021/05/02 11:00:10;;;;;;;1.67;0.57;;;16.00;70.80;;;;;;5082344;28;20088;-81
2021/05/02 11:02:38;;;;;;;1.00;0.40;;;16.10;71.10;;;;;;5084343;28;20043;-81
2021/05/02 11:05:06;;;;;;;1.60;0.75;;;16.30;70.80;;;;;;5081501;28;20408;-82
2021/05/02 11:07:41;;;;;;;1.25;0.50;;;16.20;70.20;;;;;;5079823;28;20240;-82
2021/05/02 11:10:13;;;;;;;1.45;0.50;;;16.00;70.30;;;;;;5081221;28;20032;-82
2021/05/02 11:12:42;;;;;;;0.52;0.40;;;15.80;72.10;;;;;;5081512;28;20076;-83
2021/05/02 11:15:48;;;;;;;0.85;0.40;;;15.70;73.20;;;;;;5081192;28;20056;-83
2021/05/02 11:18:22;;;;;;;1.23;0.60;;;15.10;74.00;;;;;;5021806;28;20030;-83
2021/05/02 11:20:51;;;;;;;2.63;0.70;;;14.60;75.00;;;;;;4999365;28;20069;-84
2021/05/02 11:23:18;;;;;;;1.35;0.60;;;14.00;74.30;;;;;;5044515;28;20103;-81
2021/05/02 11:25:55;;;;;;;1.90;0.65;;;13.50;75.80;;;;;;5077929;28;20051;-83
2021/05/02 11:28:56;;;;;;;2.50;0.88;;;13.10;76.50;;;;;;5079848;28;20365;-81
2021/05/02 11:31:42;;;;;;;1.45;0.68;;;12.70;77.50;;;;;;5079533;28;20097;-82
2021/05/02 11:34:10;;;;;;;1.80;0.80;;;12.50;78.90;;;;;;5082057;28;20060;-82
2021/05/02 11:36:40;;;;;;;2.53;1.10;;;12.30;80.80;;;;;;5081622;28;20020;-82
2021/05/02 11:39:38;;;;;;;2.70;1.45;;;12.30;83.40;;;;;;5081497;28;20037;-82
2021/05/02 11:42:06;;;;;;;2.03;1.00;;;12.30;83.90;;;;;;5099076;28;20111;-82
2021/05/02 11:44:34;;;;;;;2.00;1.00;;;12.20;83.10;;;;;;5078421;28;20032;-82
2021/05/02 11:47:11;;;;;;;1.52;0.82;;;12.00;82.70;;;;;;5081448;28;20016;-82
2021/05/02 11:49:41;;;;;;;1.75;1.00;;;11.90;82.80;;;;;;5080176;28;20037;-82
2021/05/02 11:52:11;;;;;;;1.85;0.95;;;11.80;83.60;;;;;;5080968;28;20403;-82
2021/05/02 11:54:49;;;;;;;3.58;1.27;;;11.70;85.20;;;;;;5079536;28;20025;-82
2021/05/02 11:57:16;;;;;;;2.53;0.95;;;11.70;85.60;;;;;;5080473;28;20108;-82
2021/05/02 11:59:50;;;;;;;2.45;1.23;;;11.80;86.40;;;;;;5080769;28;20039;-81
2021/05/02 12:02:18;;;;;;;1.85;0.93;;;11.80;86.60;;;;;;5078775;28;20020;-82
2021/05/02 12:04:46;;;;;;;2.13;1.02;;;11.90;87.10;;;;;;5078876;28;20027;-82
2021/05/02 12:07:13;;;;;;;2.95;0.85;;;11.90;87.60;;;;;;5079345;28;20020;-83
2021/05/02 12:09:42;;;;;;;3.40;1.70;;;12.10;88.60;;;;;;5078189;28;20044;-83
2021/05/02 12:12:10;;;;;;;3.22;1.55;;;12.20;90.00;;;;;;5077588;28;20028;-83
2021/05/02 12:14:37;;;;;;;2.53;1.13;;;12.20;90.00;;;;;;5079512;28;20044;-83
2021/05/02 12:17:04;;;;;;;2.45;1.38;;;13.10;90.00;;;;;;5080389;28;20384;-82
2021/05/02 12:19:31;;;;;;;1.98;1.00;;;14.40;88.40;;;;;;5077733;28;20029;-82
2021/05/02 12:21:58;;;;;;;1.70;1.10;;;14.70;85.40;;;;;;5080563;28;20103;-83
2021/05/02 12:24:28;;;;;;;1.83;0.98;;;14.60;83.70;;;;;;5063711;28;20028;-85
2021/05/02 12:27:08;;;;;;;1.85;0.98;;;14.70;83.60;;;;;;5079620;28;20454;-82
2021/05/02 12:29:37;;;;;;;3.13;0.82;;;15.10;82.70;;;;;;5080505;28;20372;-83
2021/05/02 12:32:08;;;;;;;1.80;0.70;;;15.00;79.50;;;;;;5058116;28;20032;-83
2021/05/02 12:34:42;;;;;;;2.15;0.65;;;14.80;80.40;;;;;;5081369;28;20017;-84
2021/05/02 12:37:07;;;;;;;;;;;15.40;80.40;;;;;;5078018;28;20035;-85
2021/05/02 12:39:39;;;;;;;1.67;0.90;;;16.40;77.90;;;;;;5079267;28;20432;-82
2021/05/02 12:42:06;;;;;;;1.95;0.60;;;17.00;75.00;;;;;;5081121;28;20385;-82
2021/05/02 12:44:37;;;;;;;1.30;0.50;;;16.60;72.90;;;;;;5082753;28;20111;-83
2021/05/02 12:47:18;;;;;;;2.03;0.77;;;16.10;74.70;;;;;;5091927;28;20119;-83
2021/05/02 12:50:05;;;;;;;3.42;1.20;;;15.70;73.40;;;;;;5091334;28;20056;-82
2021/05/02 12:52:45;;;;;;;1.73;0.90;;;15.20;75.40;;;;;;5090539;28;20502;-83
2021/05/02 12:55:26;;;;;;;2.20;0.80;;;14.80;77.00;;;;;;5094051;28;20028;-83
2021/05/02 12:57:57;;;;;;;1.95;0.70;;;14.40;78.70;;;;;;5093016;28;20038;-83
2021/05/02 13:00:28;;;;;;;1.35;0.70;;;14.20;78.90;;;;;;5091394;28;20533;-83
2021/05/02 13:02:56;;;;;;;1.77;0.95;;;15.10;79.70;;;;;;5079491;28;20028;-82
2021/05/02 13:05:24;;;;;;;1.30;0.57;;;15.90;77.20;;;;;;5071284;28;20024;-82
2021/05/02 13:07:53;;;;;;;1.25;0.50;;;15.80;76.90;;;;;;5072301;28;20102;-84
2021/05/02 13:10:25;;;;;;;1.02;0.60;;;15.40;78.10;;;;;;5072984;28;20051;-84